Time;durP1;ratioP1;P1;durP2;ratioP2;P2;SDS_P1;SDS_P2;PMS_P1;PMS_P2;Temp;Humidity;BMP_temperature;BMP_pressure;BME280_temperature;BME280_humidity;BME280_pressure;Samples;Min_cycle;Max_cycle;Signal;HPM_P1;HPM_P2
2022/10/15 00:01:59;;;;;;;;;;;;;;;;;;5022834;28;19925;-37
2022/10/15 00:04:24;;;;;;;;;;;;;;;;;;5022561;28;20611;-37
2022/10/15 00:06:49;;;;;;;;;;;;;;;;;;5021096;28;19921;-38
2022/10/15 00:09:14;;;;;;;;;;;;;;;;;;5018086;28;19917;-40
2022/10/15 00:11:40;;;;;;;;;;;;;;;;;;5020445;28;19929;-37
2022/10/15 00:14:05;;;;;;;;;;;;;;;;;;5018192;28;19917;-39
2022/10/15 00:16:30;;;;;;;;;;;;;;;;;;5019802;28;20051;-38
2022/10/15 00:18:55;;;;;;;;;;;;;;;;;;5018849;28;21016;-37
2022/10/15 00:21:20;;;;;;;;;;;;;;;;;;5018217;28;20412;-39
2022/10/15 00:23:45;;;;;;;;;;;;;;;;;;5017224;28;20363;-39
2022/10/15 00:26:11;;;;;;;;;;;;;;;;;;5013887;28;19924;-39
2022/10/15 00:28:36;;;;;;;;;;;;;;;;;;5017466;28;19913;-38
2022/10/15 00:31:01;;;;;;;;;;;;;;;;;;5015114;28;19921;-41
2022/10/15 00:33:26;;;;;;;;;;;;;;;;;;5018705;28;20410;-39
2022/10/15 00:35:51;;;;;;;;;;;;;;;;;;5021519;28;20367;-35
2022/10/15 00:38:16;;;;;;;;;;;;;;;;;;5018113;28;19917;-35
2022/10/15 00:40:42;;;;;;;;;;;;;;;;;;5022496;28;19922;-38
2022/10/15 00:43:07;;;;;;;;;;;;;;;;;;5012826;28;19928;-35
2022/10/15 00:45:32;;;;;;;;;;;;;;;;;;5023769;28;19917;-38
2022/10/15 00:47:57;;;;;;;;;;;;;;;;;;5020776;28;20327;-39
2022/10/15 00:50:22;;;;;;;;;;;;;;;;;;5014767;28;19952;-38
2022/10/15 00:52:47;;;;;;;;;;;;;;;;;;5019850;28;19928;-36
2022/10/15 00:55:13;;;;;;;;;;;;;;;;;;5019041;28;19992;-39
2022/10/15 00:57:38;;;;;;;;;;;;;;;;;;5020179;28;19921;-37
2022/10/15 01:00:04;;;;;;;;;;;;;;;;;;5016020;28;20051;-39
2022/10/15 01:02:29;;;;;;;;;;;;;;;;;;5013441;28;19926;-39
2022/10/15 01:04:54;;;;;;;;;;;;;;;;;;5023846;28;19913;-36
2022/10/15 01:07:19;;;;;;;;;;;;;;;;;;5014446;28;19922;-41
2022/10/15 01:09:45;;;;;;;;;;;;;;;;;;5017640;28;20005;-38
2022/10/15 01:12:10;;;;;;;;;;;;;;;;;;5014232;28;19995;-37
2022/10/15 01:14:35;;;;;;;;;;;;;;;;;;5022707;28;20333;-40
2022/10/15 01:17:00;;;;;;;;;;;;;;;;;;5019821;28;19971;-39
2022/10/15 01:19:26;;;;;;;;;;;;;;;;;;5022474;28;19929;-37
2022/10/15 01:21:51;;;;;;;;;;;;;;;;;;5019483;28;19939;-38
2022/10/15 01:24:16;;;;;;;;;;;;;;;;;;5017948;28;19924;-37
2022/10/15 01:26:41;;;;;;;;;;;;;;;;;;5019940;28;19986;-40
2022/10/15 01:29:06;;;;;;;;;;;;;;;;;;5020406;28;19917;-35
2022/10/15 01:31:32;;;;;;;;;;;;;;;;;;5022194;28;20333;-36
2022/10/15 01:33:57;;;;;;;;;;;;;;;;;;5019341;28;19924;-39
2022/10/15 01:36:22;;;;;;;;;;;;;;;;;;5020216;28;19922;-38
2022/10/15 01:38:47;;;;;;;;;;;;;;;;;;5022379;28;19957;-38
2022/10/15 01:41:12;;;;;;;;;;;;;;;;;;5019412;28;20108;-36
2022/10/15 01:43:37;;;;;;;;;;;;;;;;;;5013768;28;19922;-38
2022/10/15 01:46:02;;;;;;;;;;;;;;;;;;5018607;28;19921;-38
2022/10/15 01:48:28;;;;;;;;;;;;;;;;;;5018777;28;20709;-40
2022/10/15 01:50:53;;;;;;;;;;;;;;;;;;5020092;28;19928;-38
2022/10/15 01:53:18;;;;;;;;;;;;;;;;;;5018496;28;19921;-36
2022/10/15 01:55:43;;;;;;;;;;;;;;;;;;5022160;28;19913;-35
2022/10/15 01:58:08;;;;;;;;;;;;;;;;;;5021575;28;19913;-37
2022/10/15 02:00:34;;;;;;;;;;;;;;;;;;5018933;28;19959;-39
2022/10/15 02:02:59;;;;;;;;;;;;;;;;;;5020183;28;20259;-40
2022/10/15 02:05:24;;;;;;;;;;;;;;;;;;5020602;28;19949;-35
2022/10/15 02:07:49;;;;;;;;;;;;;;;;;;5024502;28;19995;-38
2022/10/15 02:10:14;;;;;;;;;;;;;;;;;;5019236;28;19913;-39
2022/10/15 02:12:40;;;;;;;;;;;;;;;;;;5020388;28;19924;-38
2022/10/15 02:15:06;;;;;;;;;;;;;;;;;;5021148;28;20423;-36
2022/10/15 02:17:32;;;;;;;;;;;;;;;;;;5018307;28;19917;-39
2022/10/15 02:19:57;;;;;;;;;;;;;;;;;;5021902;28;19921;-36
2022/10/15 02:22:22;;;;;;;;;;;;;;;;;;5022684;28;20348;-38
2022/10/15 02:24:47;;;;;;;;;;;;;;;;;;5017636;28;19921;-40
2022/10/15 02:27:12;;;;;;;;;;;;;;;;;;5019356;28;20144;-39
2022/10/15 02:29:38;;;;;;;;;;;;;;;;;;5020928;28;20226;-39
2022/10/15 02:32:03;;;;;;;;;;;;;;;;;;5020940;28;19925;-39
2022/10/15 02:34:28;;;;;;;;;;;;;;;;;;5014879;28;20392;-40
2022/10/15 02:36:53;;;;;;;;;;;;;;;;;;5021322;28;19913;-38
2022/10/15 02:39:18;;;;;;;;;;;;;;;;;;5019302;28;19929;-35
2022/10/15 02:41:43;;;;;;;;;;;;;;;;;;5016677;28;19979;-38
2022/10/15 02:44:08;;;;;;;;;;;;;;;;;;5020564;28;20000;-40
2022/10/15 02:46:34;;;;;;;;;;;;;;;;;;5020833;28;20327;-40
2022/10/15 02:48:59;;;;;;;;;;;;;;;;;;5024394;28;19909;-38
2022/10/15 02:51:24;;;;;;;;;;;;;;;;;;5022946;28;19942;-38
2022/10/15 02:53:49;;;;;;;;;;;;;;;;;;5020835;28;19916;-38
2022/10/15 02:56:14;;;;;;;;;;;;;;;;;;5016554;28;19917;-38
2022/10/15 02:58:40;;;;;;;;;;;;;;;;;;5019925;28;19920;-36
2022/10/15 03:01:05;;;;;;;;;;;;;;;;;;5017837;28;20313;-38
2022/10/15 03:03:30;;;;;;;;;;;;;;;;;;5018664;28;19924;-35
2022/10/15 03:05:55;;;;;;;;;;;;;;;;;;5017931;28;19959;-36
2022/10/15 03:08:20;;;;;;;;;;;;;;;;;;5010919;28;19917;-36
2022/10/15 03:10:45;;;;;;;;;;;;;;;;;;5012038;28;19913;-36
2022/10/15 03:13:11;;;;;;;;;;;;;;;;;;5010442;28;20365;-38
2022/10/15 03:15:36;;;;;;;;;;;;;;;;;;5013024;28;19917;-37
2022/10/15 03:18:01;;;;;;;;;;;;;;;;;;5012899;28;19917;-37
2022/10/15 03:20:26;;;;;;;;;;;;;;;;;;5005824;28;19922;-37
2022/10/15 03:22:51;;;;;;;;;;;;;;;;;;5013669;28;19960;-37
2022/10/15 03:25:17;;;;;;;;;;;;;;;;;;5009324;28;19932;-37
2022/10/15 03:27:42;;;;;;;;;;;;;;;;;;5011890;28;20063;-37
2022/10/15 03:30:07;;;;;;;;;;;;;;;;;;5019150;28;20000;-35
2022/10/15 03:32:32;;;;;;;;;;;;;;;;;;5019694;28;20442;-39
2022/10/15 03:34:57;;;;;;;;;;;;;;;;;;5016353;28;19921;-38
2022/10/15 03:37:22;;;;;;;;;;;;;;;;;;5018387;28;19914;-39
2022/10/15 03:39:47;;;;;;;;;;;;;;;;;;5016543;28;19964;-39
2022/10/15 03:42:13;;;;;;;;;;;;;;;;;;5012887;28;19917;-37
2022/10/15 03:44:38;;;;;;;;;;;;;;;;;;5017702;28;20442;-39
2022/10/15 03:47:03;;;;;;;;;;;;;;;;;;5016233;28;19913;-37
2022/10/15 03:49:28;;;;;;;;;;;;;;;;;;5012471;28;20538;-40
2022/10/15 03:51:53;;;;;;;;;;;;;;;;;;5016083;28;19924;-38
2022/10/15 03:54:18;;;;;;;;;;;;;;;;;;5015301;28;19928;-40
2022/10/15 03:56:43;;;;;;;;;;;;;;;;;;5016506;28;19975;-38
2022/10/15 03:59:09;;;;;;;;;;;;;;;;;;5017462;28;19932;-38
2022/10/15 04:01:34;;;;;;;;;;;;;;;;;;5018139;28;19995;-38
2022/10/15 04:03:59;;;;;;;;;;;;;;;;;;5018670;28;19921;-36
2022/10/15 04:06:24;;;;;;;;;;;;;;;;;;5016670;28;20267;-39
2022/10/15 04:08:49;;;;;;;;;;;;;;;;;;5011734;28;19920;-40
2022/10/15 04:11:14;;;;;;;;;;;;;;;;;;5014315;28;19925;-39
2022/10/15 04:13:40;;;;;;;;;;;;;;;;;;5018598;28;19921;-35
2022/10/15 04:16:05;;;;;;;;;;;;;;;;;;5018005;28;19920;-38
2022/10/15 04:18:30;;;;;;;;;;;;;;;;;;5015378;28;19952;-37
2022/10/15 04:20:55;;;;;;;;;;;;;;;;;;5014280;28;19941;-36
2022/10/15 04:23:20;;;;;;;;;;;;;;;;;;5016912;28;19979;-40
2022/10/15 04:25:46;;;;;;;;;;;;;;;;;;5014157;28;20401;-37
2022/10/15 04:28:11;;;;;;;;;;;;;;;;;;5016297;28;20002;-38
2022/10/15 04:30:36;;;;;;;;;;;;;;;;;;5014739;28;19987;-38
2022/10/15 04:33:01;;;;;;;;;;;;;;;;;;5014304;28;20034;-39
2022/10/15 04:35:26;;;;;;;;;;;;;;;;;;5015410;28;19924;-39
2022/10/15 04:37:51;;;;;;;;;;;;;;;;;;5015910;28;19920;-39
2022/10/15 04:40:17;;;;;;;;;;;;;;;;;;5015411;28;19913;-39
2022/10/15 04:42:42;;;;;;;;;;;;;;;;;;5020633;28;20041;-41
2022/10/15 04:45:07;;;;;;;;;;;;;;;;;;5021752;28;19960;-38
2022/10/15 04:47:33;;;;;;;;;;;;;;;;;;5023936;28;19920;-35
2022/10/15 04:49:58;;;;;;;;;;;;;;;;;;5020156;28;19964;-38
2022/10/15 04:52:23;;;;;;;;;;;;;;;;;;5017589;28;19917;-37
2022/10/15 04:54:48;;;;;;;;;;;;;;;;;;5022882;28;19917;-37
2022/10/15 04:57:13;;;;;;;;;;;;;;;;;;5019290;28;19920;-38
2022/10/15 04:59:38;;;;;;;;;;;;;;;;;;5023184;28;20448;-38
2022/10/15 05:02:03;;;;;;;;;;;;;;;;;;5021234;28;20464;-40
2022/10/15 05:04:29;;;;;;;;;;;;;;;;;;5021116;28;19921;-39
2022/10/15 05:06:54;;;;;;;;;;;;;;;;;;5018690;28;19987;-35
2022/10/15 05:09:19;;;;;;;;;;;;;;;;;;5023692;28;19913;-38
2022/10/15 05:11:44;;;;;;;;;;;;;;;;;;5020759;28;19916;-40
2022/10/15 05:14:10;;;;;;;;;;;;;;;;;;5018629;28;19928;-36
2022/10/15 05:16:35;;;;;;;;;;;;;;;;;;5020918;28;19913;-39
2022/10/15 05:19:00;;;;;;;;;;;;;;;;;;5020997;28;20127;-39
2022/10/15 05:21:25;;;;;;;;;;;;;;;;;;5022785;28;19917;-37
2022/10/15 05:23:51;;;;;;;;;;;;;;;;;;5021468;28;20128;-39
2022/10/15 05:26:16;;;;;;;;;;;;;;;;;;5021421;28;20301;-38
2022/10/15 05:28:41;;;;;;;;;;;;;;;;;;5022539;28;19913;-37
2022/10/15 05:31:06;;;;;;;;;;;;;;;;;;5022084;28;19914;-39
2022/10/15 05:33:32;;;;;;;;;;;;;;;;;;5020979;28;20007;-38
2022/10/15 05:35:57;;;;;;;;;;;;;;;;;;5023061;28;19913;-38
2022/10/15 05:38:22;;;;;;;;;;;;;;;;;;5020855;28;19913;-38
2022/10/15 05:40:48;;;;;;;;;;;;;;;;;;5021365;28;19913;-38
2022/10/15 05:43:13;;;;;;;;;;;;;;;;;;5021269;28;19921;-36
2022/10/15 05:45:38;;;;;;;;;;;;;;;;;;5024087;28;19917;-35
2022/10/15 05:48:04;;;;;;;;;;;;;;;;;;5019073;28;20159;-37
2022/10/15 05:50:29;;;;;;;;;;;;;;;;;;5018949;28;20401;-37
2022/10/15 05:52:54;;;;;;;;;;;;;;;;;;5021010;28;19925;-35
2022/10/15 05:55:19;;;;;;;;;;;;;;;;;;5015646;28;20160;-37
2022/10/15 05:57:44;;;;;;;;;;;;;;;;;;5021634;28;19913;-37
2022/10/15 06:00:10;;;;;;;;;;;;;;;;;;5018974;28;19917;-35
2022/10/15 06:02:35;;;;;;;;;;;;;;;;;;5018814;28;19925;-36
2022/10/15 06:05:00;;;;;;;;;;;;;;;;;;5021205;28;19921;-37
2022/10/15 06:07:26;;;;;;;;;;;;;;;;;;5021335;28;19922;-37
2022/10/15 06:09:51;;;;;;;;;;;;;;;;;;5021209;28;19971;-35
2022/10/15 06:12:16;;;;;;;;;;;;;;;;;;5013556;28;19926;-38
2022/10/15 06:14:42;;;;;;;;;;;;;;;;;;5012795;28;19957;-36
2022/10/15 06:17:07;;;;;;;;;;;;;;;;;;5019100;28;19925;-36
2022/10/15 06:19:32;;;;;;;;;;;;;;;;;;5019087;28;19957;-38
2022/10/15 06:21:57;;;;;;;;;;;;;;;;;;5019668;28;20438;-38
2022/10/15 06:24:22;;;;;;;;;;;;;;;;;;5019034;28;20028;-35
2022/10/15 06:26:47;;;;;;;;;;;;;;;;;;5020293;28;19913;-36
2022/10/15 06:29:13;;;;;;;;;;;;;;;;;;5017479;28;19917;-37
2022/10/15 06:31:38;;;;;;;;;;;;;;;;;;5015872;28;19913;-37
2022/10/15 06:34:03;;;;;;;;;;;;;;;;;;5014978;28;19939;-35
2022/10/15 06:36:28;;;;;;;;;;;;;;;;;;5014765;28;20306;-35
2022/10/15 06:38:53;;;;;;;;;;;;;;;;;;5017552;28;19913;-35
2022/10/15 06:41:18;;;;;;;;;;;;;;;;;;5017192;28;19922;-38
2022/10/15 06:43:44;;;;;;;;;;;;;;;;;;5017288;28;19998;-37
2022/10/15 06:46:10;;;;;;;;;;;;;;;;;;5016236;28;19913;-35
2022/10/15 06:48:35;;;;;;;;;;;;;;;;;;5018906;28;19921;-37
2022/10/15 06:51:00;;;;;;;;;;;;;;;;;;5017583;28;19925;-36
2022/10/15 06:53:25;;;;;;;;;;;;;;;;;;5017892;28;19917;-38
2022/10/15 06:55:50;;;;;;;;;;;;;;;;;;5011251;28;19984;-35
2022/10/15 06:58:16;;;;;;;;;;;;;;;;;;5015080;28;20012;-38
2022/10/15 07:00:41;;;;;;;;;;;;;;;;;;5017740;28;20053;-35
2022/10/15 07:03:06;;;;;;;;;;;;;;;;;;5019289;28;19921;-37
2022/10/15 07:05:31;;;;;;;;;;;;;;;;;;5018930;28;20279;-35
2022/10/15 07:07:56;;;;;;;;;;;;;;;;;;5019609;28;19928;-36
2022/10/15 07:10:21;;;;;;;;;;;;;;;;;;5013998;28;20351;-35
2022/10/15 07:12:47;;;;;;;;;;;;;;;;;;5011636;28;20252;-38
2022/10/15 07:15:12;;;;;;;;;;;;;;;;;;5009057;28;20336;-35
2022/10/15 07:17:38;;;;;;;;;;;;;;;;;;5011355;28;20411;-36
2022/10/15 07:20:03;;;;;;;;;;;;;;;;;;5010659;28;20016;-35
2022/10/15 07:22:28;;;;;;;;;;;;;;;;;;5011804;28;19925;-38
2022/10/15 07:24:53;;;;;;;;;;;;;;;;;;5011491;28;20394;-35
2022/10/15 07:27:19;;;;;;;;;;;;;;;;;;5011878;28;20171;-39
2022/10/15 07:29:44;;;;;;;;;;;;;;;;;;5014832;28;19924;-36
2022/10/15 07:32:09;;;;;;;;;;;;;;;;;;5017704;28;19921;-36
2022/10/15 07:34:34;;;;;;;;;;;;;;;;;;5019030;28;19913;-39
2022/10/15 07:37:00;;;;;;;;;;;;;;;;;;5011976;28;20622;-36
2022/10/15 07:39:25;;;;;;;;;;;;;;;;;;5006361;28;19966;-36
2022/10/15 07:41:50;;;;;;;;;;;;;;;;;;5009174;28;19968;-36
2022/10/15 07:44:15;;;;;;;;;;;;;;;;;;5017369;28;19913;-35
2022/10/15 07:46:40;;;;;;;;;;;;;;;;;;5020738;28;20355;-37
2022/10/15 07:49:06;;;;;;;;;;;;;;;;;;5018979;28;20062;-35
2022/10/15 07:51:31;;;;;;;;;;;;;;;;;;5008765;28;19967;-39
2022/10/15 07:53:56;;;;;;;;;;;;;;;;;;5002504;28;19918;-36
2022/10/15 07:56:21;;;;;;;;;;;;;;;;;;5010192;28;19956;-35
2022/10/15 07:58:52;;;;;;;;;;;;;;;;;;5014840;28;19913;-38
2022/10/15 08:01:18;;;;;;;;;;;;;;;;;;5009359;28;19913;-35
2022/10/15 08:03:43;;;;;;;;;;;;;;;;;;5011410;28;19940;-38
2022/10/15 08:06:08;;;;;;;;;;;;;;;;;;5007211;28;19917;-36
2022/10/15 08:08:33;;;;;;;;;;;;;;;;;;5007434;28;19948;-37
2022/10/15 08:10:58;;;;;;;;;;;;;;;;;;5009240;28;19941;-37
2022/10/15 08:13:23;;;;;;;;;;;;;;;;;;5004513;28;19917;-36
2022/10/15 08:15:49;;;;;;;;;;;;;;;;;;5009108;28;19917;-35
2022/10/15 08:18:14;;;;;;;;;;;;;;;;;;5019574;28;20072;-38
2022/10/15 08:20:39;;;;;;;;;;;;;;;;;;5010017;28;19925;-36
2022/10/15 08:23:04;;;;;;;;;;;;;;;;;;5007787;28;20379;-36
2022/10/15 08:25:31;;;;;;;;;;;;;;;;;;5012234;28;19920;-35
2022/10/15 08:27:56;;;;;;;;;;;;;;;;;;5011495;28;19920;-38
2022/10/15 08:30:21;;;;;;;;;;;;;;;;;;5004308;28;19921;-38
2022/10/15 08:32:46;;;;;;;;;;;;;;;;;;5010628;28;19921;-36
2022/10/15 08:35:11;;;;;;;;;;;;;;;;;;5010058;28;19975;-38
2022/10/15 08:37:36;;;;;;;;;;;;;;;;;;5018132;28;19927;-35
2022/10/15 08:40:02;;;;;;;;;;;;;;;;;;5013215;28;20007;-38
2022/10/15 08:42:27;;;;;;;;;;;;;;;;;;5011093;28;20468;-40
2022/10/15 08:44:52;;;;;;;;;;;;;;;;;;5011578;28;19913;-38
2022/10/15 08:47:17;;;;;;;;;;;;;;;;;;5009630;28;19928;-39
2022/10/15 08:49:42;;;;;;;;;;;;;;;;;;5016994;28;19979;-37
2022/10/15 08:52:08;;;;;;;;;;;;;;;;;;5023431;28;19928;-36
2022/10/15 08:54:34;;;;;;;;;;;;;;;;;;5019840;28;20278;-37
2022/10/15 08:56:59;;;;;;;;;;;;;;;;;;5021841;28;19980;-39
2022/10/15 08:59:24;;;;;;;;;;;;;;;;;;5019450;28;19917;-38
2022/10/15 09:01:49;;;;;;;;;;;;;;;;;;5021443;28;20317;-35
2022/10/15 09:04:15;;;;;;;;;;;;;;;;;;5018145;28;19913;-35
2022/10/15 09:06:40;;;;;;;;;;;;;;;;;;5022177;28;20032;-35
2022/10/15 09:09:05;;;;;;;;;;;;;;;;;;5021926;28;20334;-36
2022/10/15 09:11:30;;;;;;;;;;;;;;;;;;5020956;28;20375;-35
2022/10/15 09:13:55;;;;;;;;;;;;;;;;;;5022275;28;20084;-35
2022/10/15 09:16:20;;;;;;;;;;;;;;;;;;5019584;28;19921;-36
2022/10/15 09:18:46;;;;;;;;;;;;;;;;;;5023448;28;20283;-37
2022/10/15 09:21:12;;;;;;;;;;;;;;;;;;5019983;28;20007;-36
2022/10/15 09:23:37;;;;;;;;;;;;;;;;;;5018081;28;20225;-35
2022/10/15 09:26:03;;;;;;;;;;;;;;;;;;5020037;28;19914;-38
2022/10/15 09:28:28;;;;;;;;;;;;;;;;;;5017137;28;19932;-35
2022/10/15 09:30:53;;;;;;;;;;;;;;;;;;5020526;28;19920;-37
2022/10/15 09:33:18;;;;;;;;;;;;;;;;;;5018741;28;20107;-36
2022/10/15 09:35:43;;;;;;;;;;;;;;;;;;5019805;28;19964;-35
2022/10/15 09:38:12;;;;;;;;;;;;;;;;;;5020763;28;19921;-37
2022/10/15 09:40:37;;;;;;;;;;;;;;;;;;5019715;28;20012;-37
2022/10/15 09:43:02;;;;;;;;;;;;;;;;;;5020211;28;20306;-37
2022/10/15 09:45:27;;;;;;;;;;;;;;;;;;5018899;28;19921;-36
2022/10/15 09:47:52;;;;;;;;;;;;;;;;;;5027235;28;20267;-35
2022/10/15 09:50:18;;;;;;;;;;;;;;;;;;5024791;28;20382;-38
2022/10/15 09:52:43;;;;;;;;;;;;;;;;;;5017842;28;20367;-35
2022/10/15 09:55:08;;;;;;;;;;;;;;;;;;5023633;28;19913;-37
2022/10/15 09:57:33;;;;;;;;;;;;;;;;;;5022988;28;19996;-35
2022/10/15 10:00:01;;;;;;;;;;;;;;;;;;5021454;28;19917;-38
2022/10/15 10:02:26;;;;;;;;;;;;;;;;;;5020248;28;20010;-35
2022/10/15 10:04:52;;;;;;;;;;;;;;;;;;5014279;28;20031;-35
2022/10/15 10:07:17;;;;;;;;;;;;;;;;;;5016714;28;19897;-38
2022/10/15 10:09:42;;;;;;;;;;;;;;;;;;5012743;28;20291;-37
2022/10/15 10:12:07;;;;;;;;;;;;;;;;;;5015576;28;19928;-38
2022/10/15 10:14:32;;;;;;;;;;;;;;;;;;5013140;28;19921;-37
2022/10/15 10:16:57;;;;;;;;;;;;;;;;;;5010053;28;19959;-37
2022/10/15 10:19:23;;;;;;;;;;;;;;;;;;5018792;28;19913;-37
2022/10/15 10:21:48;;;;;;;;;;;;;;;;;;5016915;28;20368;-38
2022/10/15 10:24:13;;;;;;;;;;;;;;;;;;5005058;28;20620;-36
2022/10/15 10:26:38;;;;;;;;;;;;;;;;;;5013087;28;19967;-39
2022/10/15 10:29:03;;;;;;;;;;;;;;;;;;5019590;28;19966;-37
2022/10/15 10:31:29;;;;;;;;;;;;;;;;;;5011573;28;19928;-36
2022/10/15 10:33:54;;;;;;;;;;;;;;;;;;5010415;28;19913;-37
2022/10/15 10:36:19;;;;;;;;;;;;;;;;;;4999314;28;19932;-37
2022/10/15 10:38:44;;;;;;;;;;;;;;;;;;5003044;28;20003;-36
2022/10/15 10:41:09;;;;;;;;;;;;;;;;;;5005313;28;19921;-36
2022/10/15 10:43:34;;;;;;;;;;;;;;;;;;4999047;28;19925;-38
2022/10/15 10:46:00;;;;;;;;;;;;;;;;;;5010688;28;20401;-36
2022/10/15 10:48:25;;;;;;;;;;;;;;;;;;5006900;28;19983;-36
2022/10/15 10:50:50;;;;;;;;;;;;;;;;;;5016024;28;19921;-36
2022/10/15 10:53:15;;;;;;;;;;;;;;;;;;5008029;28;20682;-35
2022/10/15 10:55:40;;;;;;;;;;;;;;;;;;5015972;28;19924;-35
2022/10/15 10:58:05;;;;;;;;;;;;;;;;;;5012795;28;19975;-36
2022/10/15 11:00:31;;;;;;;;;;;;;;;;;;5016103;28;19952;-35
2022/10/15 11:02:56;;;;;;;;;;;;;;;;;;5020040;28;20350;-37
2022/10/15 11:05:21;;;;;;;;;;;;;;;;;;5015981;28;19962;-35
2022/10/15 11:07:46;;;;;;;;;;;;;;;;;;5016905;28;19921;-38
2022/10/15 11:10:12;;;;;;;;;;;;;;;;;;5017249;28;19974;-37
2022/10/15 11:12:37;;;;;;;;;;;;;;;;;;5016040;28;20624;-36
2022/10/15 11:15:02;;;;;;;;;;;;;;;;;;5015530;28;19928;-35
2022/10/15 11:17:28;;;;;;;;;;;;;;;;;;5016981;28;19925;-35
2022/10/15 11:19:54;;;;;;;;;;;;;;;;;;5016565;28;20624;-36
2022/10/15 11:22:19;;;;;;;;;;;;;;;;;;5013661;28;20294;-35
2022/10/15 11:24:44;;;;;;;;;;;;;;;;;;5013619;28;20088;-39
2022/10/15 11:27:10;;;;;;;;;;;;;;;;;;5017796;28;19928;-38
2022/10/15 11:29:35;;;;;;;;;;;;;;;;;;5016807;28;19919;-37
2022/10/15 11:32:01;;;;;;;;;;;;;;;;;;5017524;28;20336;-38
2022/10/15 11:34:26;;;;;;;;;;;;;;;;;;5012508;28;19980;-38
2022/10/15 11:36:51;;;;;;;;;;;;;;;;;;5015051;28;20633;-38
2022/10/15 11:39:17;;;;;;;;;;;;;;;;;;5016204;28;20011;-39
2022/10/15 11:41:42;;;;;;;;;;;;;;;;;;5013093;28;19921;-36
2022/10/15 11:44:07;;;;;;;;;;;;;;;;;;5012627;28;19922;-35
2022/10/15 11:46:33;;;;;;;;;;;;;;;;;;5014907;28;19948;-36
2022/10/15 11:48:58;;;;;;;;;;;;;;;;;;5015612;28;19917;-37
2022/10/15 11:51:23;;;;;;;;;;;;;;;;;;5016941;28;19920;-39
2022/10/15 11:53:48;;;;;;;;;;;;;;;;;;5020893;28;20294;-35
2022/10/15 11:56:14;;;;;;;;;;;;;;;;;;5022879;28;19917;-36
2022/10/15 11:58:39;;;;;;;;;;;;;;;;;;5018707;28;19921;-36
2022/10/15 12:01:05;;;;;;;;;;;;;;;;;;5019751;28;19923;-37
2022/10/15 12:03:30;;;;;;;;;;;;;;;;;;5016610;28;19921;-36
2022/10/15 12:05:55;;;;;;;;;;;;;;;;;;5018547;28;19924;-36
2022/10/15 12:08:21;;;;;;;;;;;;;;;;;;5017485;28;20371;-39
2022/10/15 12:10:46;;;;;;;;;;;;;;;;;;5015463;28;19924;-38
2022/10/15 12:13:11;;;;;;;;;;;;;;;;;;5013553;28;19940;-37
2022/10/15 12:15:36;;;;;;;;;;;;;;;;;;5017282;28;19924;-38
2022/10/15 12:18:01;;;;;;;;;;;;;;;;;;5016030;28;20640;-38
2022/10/15 12:20:27;;;;;;;;;;;;;;;;;;5017666;28;19937;-39
2022/10/15 12:22:52;;;;;;;;;;;;;;;;;;5015437;28;19925;-38
2022/10/15 12:25:17;;;;;;;;;;;;;;;;;;5015056;28;19921;-39
2022/10/15 12:27:42;;;;;;;;;;;;;;;;;;5015904;28;20043;-38
2022/10/15 12:30:08;;;;;;;;;;;;;;;;;;5017002;28;19959;-39
2022/10/15 12:32:33;;;;;;;;;;;;;;;;;;5017606;28;20007;-39
2022/10/15 12:34:58;;;;;;;;;;;;;;;;;;5019620;28;19921;-35
2022/10/15 12:37:24;;;;;;;;;;;;;;;;;;5020619;28;19913;-39
2022/10/15 12:39:49;;;;;;;;;;;;;;;;;;5016139;28;19957;-36
2022/10/15 12:42:14;;;;;;;;;;;;;;;;;;5018438;28;19917;-37
2022/10/15 12:44:39;;;;;;;;;;;;;;;;;;5016036;28;20593;-39
2022/10/15 12:47:06;;;;;;;;;;;;;;;;;;5018991;28;19917;-38
2022/10/15 12:49:31;;;;;;;;;;;;;;;;;;5014114;28;19924;-35
2022/10/15 12:51:56;;;;;;;;;;;;;;;;;;5020403;28;19921;-38
2022/10/15 12:54:21;;;;;;;;;;;;;;;;;;5016620;28;19921;-35
2022/10/15 12:56:46;;;;;;;;;;;;;;;;;;5016590;28;19922;-39
2022/10/15 12:59:11;;;;;;;;;;;;;;;;;;5018368;28;19921;-39
2022/10/15 13:01:37;;;;;;;;;;;;;;;;;;5015480;28;20657;-38
2022/10/15 13:04:02;;;;;;;;;;;;;;;;;;5012985;28;19952;-36
2022/10/15 13:06:27;;;;;;;;;;;;;;;;;;5018313;28;19978;-36
2022/10/15 13:08:52;;;;;;;;;;;;;;;;;;5019947;28;20604;-39
2022/10/15 13:11:18;;;;;;;;;;;;;;;;;;5016600;28;20310;-39
2022/10/15 13:13:43;;;;;;;;;;;;;;;;;;5017692;28;21656;-37
2022/10/15 13:16:08;;;;;;;;;;;;;;;;;;5019857;28;19913;-40
2022/10/15 13:18:33;;;;;;;;;;;;;;;;;;5014968;28;19952;-38
2022/10/15 13:20:58;;;;;;;;;;;;;;;;;;5019104;28;19921;-37
2022/10/15 13:23:26;;;;;;;;;;;;;;;;;;5018433;28;19927;-40
2022/10/15 13:25:52;;;;;;;;;;;;;;;;;;5018427;28;20394;-40
2022/10/15 13:28:17;;;;;;;;;;;;;;;;;;5015115;28;19944;-37
2022/10/15 13:30:42;;;;;;;;;;;;;;;;;;5015164;28;19959;-38
2022/10/15 13:33:07;;;;;;;;;;;;;;;;;;5018378;28;19920;-38
2022/10/15 13:35:33;;;;;;;;;;;;;;;;;;5016893;28;20302;-37
2022/10/15 13:37:58;;;;;;;;;;;;;;;;;;5017971;28;19971;-37
2022/10/15 13:40:23;;;;;;;;;;;;;;;;;;5017481;28;19917;-40
2022/10/15 13:42:48;;;;;;;;;;;;;;;;;;5014743;28;20446;-38
2022/10/15 13:45:14;;;;;;;;;;;;;;;;;;5012270;28;19917;-39
2022/10/15 13:47:39;;;;;;;;;;;;;;;;;;5015791;28;20493;-36
2022/10/15 13:50:04;;;;;;;;;;;;;;;;;;5016709;28;19917;-38
2022/10/15 13:52:29;;;;;;;;;;;;;;;;;;5014528;28;19925;-39
2022/10/15 13:54:54;;;;;;;;;;;;;;;;;;5018787;28;20016;-37
2022/10/15 13:57:19;;;;;;;;;;;;;;;;;;5014168;28;19921;-39
2022/10/15 13:59:45;;;;;;;;;;;;;;;;;;5015038;28;20434;-39
2022/10/15 14:02:10;;;;;;;;;;;;;;;;;;5014270;28;19933;-41
2022/10/15 14:04:35;;;;;;;;;;;;;;;;;;5017930;28;19918;-39
2022/10/15 14:07:01;;;;;;;;;;;;;;;;;;5017851;28;19921;-37
2022/10/15 14:09:27;;;;;;;;;;;;;;;;;;5016692;28;19974;-39
2022/10/15 14:11:52;;;;;;;;;;;;;;;;;;5016272;28;19917;-40
2022/10/15 14:14:17;;;;;;;;;;;;;;;;;;5013761;28;19917;-38
2022/10/15 14:16:42;;;;;;;;;;;;;;;;;;5016841;28;19917;-39
2022/10/15 14:19:07;;;;;;;;;;;;;;;;;;5015785;28;19924;-38
2022/10/15 14:21:32;;;;;;;;;;;;;;;;;;5014600;28;19979;-38
2022/10/15 14:23:58;;;;;;;;;;;;;;;;;;5015478;28;20434;-39
2022/10/15 14:26:23;;;;;;;;;;;;;;;;;;5014808;28;19917;-39
2022/10/15 14:28:49;;;;;;;;;;;;;;;;;;5017726;28;19917;-40
2022/10/15 14:31:14;;;;;;;;;;;;;;;;;;5011955;28;19921;-38
2022/10/15 14:33:39;;;;;;;;;;;;;;;;;;5013515;28;20024;-40
2022/10/15 14:36:04;;;;;;;;;;;;;;;;;;5015184;28;19921;-39
2022/10/15 14:38:29;;;;;;;;;;;;;;;;;;5018025;28;20087;-37
2022/10/15 14:40:55;;;;;;;;;;;;;;;;;;5016175;28;20011;-38
2022/10/15 14:43:20;;;;;;;;;;;;;;;;;;5016150;28;19986;-39
2022/10/15 14:45:45;;;;;;;;;;;;;;;;;;5013484;28;19924;-38
2022/10/15 14:48:10;;;;;;;;;;;;;;;;;;5015276;28;19922;-40
2022/10/15 14:50:35;;;;;;;;;;;;;;;;;;5016007;28;20327;-36
2022/10/15 14:53:00;;;;;;;;;;;;;;;;;;5022858;28;19959;-37
2022/10/15 14:55:26;;;;;;;;;;;;;;;;;;5018315;28;20012;-44
2022/10/15 14:57:51;;;;;;;;;;;;;;;;;;5012823;28;19924;-43
2022/10/15 15:00:16;;;;;;;;;;;;;;;;;;5012314;28;20314;-43
2022/10/15 15:02:41;;;;;;;;;;;;;;;;;;5013280;28;19929;-43
2022/10/15 15:05:06;;;;;;;;;;;;;;;;;;5017810;28;19968;-43
2022/10/15 15:07:32;;;;;;;;;;;;;;;;;;5015752;28;19940;-43
2022/10/15 15:09:57;;;;;;;;;;;;;;;;;;5016583;28;19921;-43
2022/10/15 15:12:22;;;;;;;;;;;;;;;;;;5015408;28;19961;-44
2022/10/15 15:14:47;;;;;;;;;;;;;;;;;;5019704;28;20159;-43
2022/10/15 15:17:12;;;;;;;;;;;;;;;;;;5016962;28;20379;-43
2022/10/15 15:19:37;;;;;;;;;;;;;;;;;;5016650;28;20052;-44
2022/10/15 15:22:03;;;;;;;;;;;;;;;;;;5019354;28;19986;-44
2022/10/15 15:24:28;;;;;;;;;;;;;;;;;;5017031;28;19961;-43
2022/10/15 15:26:53;;;;;;;;;;;;;;;;;;5019769;28;19924;-44
2022/10/15 15:29:18;;;;;;;;;;;;;;;;;;5015203;28;20676;-44
2022/10/15 15:31:43;;;;;;;;;;;;;;;;;;5015169;28;19996;-44
2022/10/15 15:34:09;;;;;;;;;;;;;;;;;;5011622;28;19917;-43
2022/10/15 15:36:34;;;;;;;;;;;;;;;;;;5014417;28;20011;-44
2022/10/15 15:38:59;;;;;;;;;;;;;;;;;;5014008;28;20426;-44
2022/10/15 15:41:24;;;;;;;;;;;;;;;;;;5012535;28;19917;-43
2022/10/15 15:43:50;;;;;;;;;;;;;;;;;;5016055;28;20264;-43
2022/10/15 15:46:15;;;;;;;;;;;;;;;;;;5012586;28;19918;-44
2022/10/15 15:48:40;;;;;;;;;;;;;;;;;;5010969;28;20120;-43
2022/10/15 15:51:05;;;;;;;;;;;;;;;;;;5015650;28;20084;-44
2022/10/15 15:53:31;;;;;;;;;;;;;;;;;;5016339;28;19928;-44
2022/10/15 15:55:56;;;;;;;;;;;;;;;;;;5014573;28;21851;-44
2022/10/15 15:58:21;;;;;;;;;;;;;;;;;;5016109;28;19921;-43
2022/10/15 16:00:46;;;;;;;;;;;;;;;;;;5006937;28;19921;-44
2022/10/15 16:03:11;;;;;;;;;;;;;;;;;;5013050;28;20441;-43
2022/10/15 16:05:38;;;;;;;;;;;;;;;;;;5014054;28;19994;-43
2022/10/15 16:08:03;;;;;;;;;;;;;;;;;;5017537;28;19953;-44
2022/10/15 16:10:28;;;;;;;;;;;;;;;;;;5013649;28;19956;-43
2022/10/15 16:12:55;;;;;;;;;;;;;;;;;;5015889;28;19932;-43
2022/10/15 16:15:20;;;;;;;;;;;;;;;;;;5015686;28;19983;-44
2022/10/15 16:17:45;;;;;;;;;;;;;;;;;;5014238;28;20915;-43
2022/10/15 16:20:10;;;;;;;;;;;;;;;;;;5015264;28;20466;-44
2022/10/15 16:22:35;;;;;;;;;;;;;;;;;;5013102;28;19947;-43
2022/10/15 16:25:01;;;;;;;;;;;;;;;;;;5012655;28;19927;-43
2022/10/15 16:27:26;;;;;;;;;;;;;;;;;;5016438;28;19917;-43
2022/10/15 16:29:51;;;;;;;;;;;;;;;;;;5016777;28;20282;-43
2022/10/15 16:32:17;;;;;;;;;;;;;;;;;;5013427;28;19917;-43